Main page
METAR-TAF:

METAR-TAF

Airports :

Djibouti, Djibouti

Djibouti–Ambouli International Airport

latitude: 11-33N, longitude: 043-10E, elevation: 49 m

METAR: missing

Time: 21:59 (18:59 UTC)

Forecast

The report was made 31 hours and 59 minutes ago, at 11:00 UTC
Forecast valid from 18 at 12 UTC to 19 at 12 UTC
Wind 12 kt from the East
Visibility 10 km or more
Scattered clouds at a height of 2300 ft
Becoming
from 18 at 15 UTC to 18 at 18 UTC
Wind 5 kt from variable directions
Few clouds at a height of 2000 ft
Becoming
from 19 at 00 UTC to 19 at 03 UTC
Wind kt from the North
Scattered clouds at a height of 2000 ft
Scattered clouds at a height of 3000 ft
Becoming
from 19 at 03 UTC to 19 at 06 UTC
Wind 3 kt from variable directions
Scattered clouds at a height of 2000 ft
Broken clouds at a height of 3000 ft
light rain showers

TAF: HDAM 181100Z 1812/1912 10012KT 9999 SCT023 BECMG 1815/1818 VRB05KT FEW020 BECMG 1900/1903 00000KT SCT020 SCT030 BECMG 1903/1906 VRB03KT -SHRA SCT020 BKN030

Weather observations and forecasts of more than 4000 airports (METAR and TAF reports).

The available stations are represented by yellow and red dots on the map.

Hover mouse over dot to see the name of the station.

Then click to see weather observations and forecasts.

To change the map : click on the green buttons with a black cross to zoom in, on the green button with a dash to zoom out, or on the green arrows for adjacent maps.


METAR-TAF: